Terminal Aerodrome Forecast
Issued by NWS Northern Indiana

Home | Current Version | Previous Version | Text Only | Print | Product List | Glossary On
Versions: 1 2 3 4 5 6 7 8 9 10 11 12 13 14
000
FTUS43 KIWX 231700
TAFFWA
TAF
KFWA 231720Z 2318/2418 32012KT P6SM FEW008 OVC015
     FM231900 34012KT P6SM BKN025
     FM232100 36008KT P6SM BKN035
     FM240400 02005KT P6SM SCT050=

USA.gov is the U.S. government's official web portal to all federal, state and local government web resources and services.